Time;durP1;ratioP1;P1;durP2;ratioP2;P2;SDS_P1;SDS_P2;PMS_P1;PMS_P2;Temp;Humidity;BMP_temperature;BMP_pressure;BME280_temperature;BME280_humidity;BME280_pressure;Samples;Min_cycle;Max_cycle;Signal;HPM_P1;HPM_P2
2022/05/14 00:01:42;;;;;;;8.97;3.60;;;12.90;99.90;;;;;;5122135;27;20248;-63
2022/05/14 00:04:11;;;;;;;9.83;3.53;;;12.90;99.90;;;;;;5120872;27;20715;-63
2022/05/14 00:06:39;;;;;;;9.03;3.70;;;12.90;99.90;;;;;;5122653;27;20239;-63
2022/05/14 00:09:08;;;;;;;9.70;4.30;;;12.90;99.90;;;;;;5104582;27;20240;-63
2022/05/14 00:14:23;;;;;;;6.97;3.70;;;12.90;99.90;;;;;;5119278;27;20233;-63
2022/05/14 00:16:52;;;;;;;8.50;3.80;;;12.90;99.90;;;;;;5121571;27;20248;-63
2022/05/14 00:19:20;;;;;;;10.37;4.17;;;12.90;99.90;;;;;;5121461;27;20239;-63
2022/05/14 00:21:48;;;;;;;7.60;3.53;;;12.90;99.90;;;;;;5121457;27;20251;-63
2022/05/14 00:24:17;;;;;;;8.73;3.83;;;12.80;99.90;;;;;;5120098;27;20330;-63
2022/05/14 00:26:46;;;;;;;8.97;4.37;;;12.80;99.90;;;;;;5121522;27;20327;-63
2022/05/14 00:29:14;;;;;;;8.50;4.00;;;12.80;99.90;;;;;;5104106;28;20779;-63
2022/05/14 00:31:43;;;;;;;11.13;4.10;;;12.80;99.90;;;;;;5103834;28;20722;-63
2022/05/14 00:34:12;;;;;;;9.30;4.50;;;12.70;99.90;;;;;;5101317;28;20240;-63
2022/05/14 00:36:40;;;;;;;11.57;4.47;;;12.70;99.90;;;;;;5105645;28;20236;-63
2022/05/14 00:39:08;;;;;;;7.77;4.23;;;12.70;99.90;;;;;;5121672;27;20266;-63
2022/05/14 00:41:38;;;;;;;8.80;3.70;;;12.80;99.90;;;;;;5121827;27;20235;-63
2022/05/14 00:44:07;;;;;;;9.53;4.27;;;12.70;99.90;;;;;;5119080;27;20251;-63
2022/05/14 00:46:44;;;;;;;9.53;4.00;;;12.70;99.90;;;;;;5121812;27;20755;-63
2022/05/14 00:49:16;;;;;;;9.90;4.40;;;12.70;99.90;;;;;;5121950;27;20255;-63
2022/05/14 00:51:45;;;;;;;6.63;3.87;;;12.70;99.90;;;;;;5121872;27;20236;-63
2022/05/14 00:54:16;;;;;;;9.90;4.10;;;12.80;99.90;;;;;;5102425;28;20251;-63
2022/05/14 00:56:48;;;;;;;9.67;4.30;;;12.80;99.90;;;;;;5124212;27;20600;-63
2022/05/14 00:59:19;;;;;;;7.07;3.93;;;12.80;99.90;;;;;;5109501;27;20253;-63
2022/05/14 01:01:49;;;;;;;9.73;4.37;;;12.70;99.90;;;;;;5106733;27;21329;-63
2022/05/14 01:04:21;;;;;;;7.20;4.30;;;12.60;99.90;;;;;;5122839;27;20669;-63
2022/05/14 01:06:55;;;;;;;9.17;4.17;;;12.60;99.90;;;;;;5107902;27;20244;-63
2022/05/14 01:09:24;;;;;;;9.07;4.30;;;12.70;99.90;;;;;;5122724;27;20240;-63
2022/05/14 01:11:54;;;;;;;9.67;4.00;;;12.60;99.90;;;;;;5108013;27;20240;-63
2022/05/14 01:14:23;;;;;;;13.97;4.70;;;12.60;99.90;;;;;;5104165;27;20260;-63
2022/05/14 01:16:55;;;;;;;10.63;4.10;;;12.60;99.90;;;;;;5125306;27;20240;-63
2022/05/14 01:19:28;;;;;;;8.53;4.43;;;12.60;99.90;;;;;;5107425;27;20711;-63
2022/05/14 01:22:13;;;;;;;10.30;4.30;;;12.60;99.90;;;;;;5125434;27;20236;-63
2022/05/14 01:27:42;;;;;;;9.23;4.07;;;12.50;99.90;;;;;;5067472;27;20235;-63
2022/05/14 01:30:11;;;;;;;13.30;4.80;;;12.50;99.90;;;;;;5109674;27;20262;-63
2022/05/14 01:32:39;;;;;;;8.57;4.67;;;12.50;99.90;;;;;;5110211;27;20330;-63
2022/05/14 01:35:08;;;;;;;7.27;4.20;;;12.60;99.90;;;;;;5110294;27;20811;-63
2022/05/14 01:37:38;;;;;;;8.50;4.13;;;12.60;99.90;;;;;;5114201;27;20239;-63
2022/05/14 01:40:07;;;;;;;10.53;4.50;;;12.50;99.90;;;;;;5122739;27;20252;-63
2022/05/14 01:42:36;;;;;;;8.77;4.13;;;12.50;99.90;;;;;;5108352;27;20265;-63
2022/05/14 01:45:07;;;;;;;11.13;4.43;;;12.50;99.90;;;;;;5106432;27;20244;-63
2022/05/14 01:47:36;;;;;;;11.43;4.90;;;12.50;99.90;;;;;;5107257;27;20248;-63
2022/05/14 01:50:07;;;;;;;9.30;4.17;;;12.50;99.90;;;;;;5106611;27;20650;-63
2022/05/14 01:52:35;;;;;;;11.60;4.30;;;12.50;99.90;;;;;;5105750;27;20242;-63
2022/05/14 01:55:03;;;;;;;8.37;4.07;;;12.50;99.90;;;;;;5109430;27;20251;-63
2022/05/14 01:57:32;;;;;;;11.77;4.93;;;12.50;99.90;;;;;;5123401;27;20765;-63
2022/05/14 02:00:00;;;;;;;12.70;4.30;;;12.50;99.90;;;;;;5109340;27;20740;-63
2022/05/14 02:02:43;;;;;;;11.40;4.50;;;12.50;99.90;;;;;;5121778;27;20582;-63
2022/05/14 02:05:15;;;;;;;12.23;4.50;;;12.50;99.90;;;;;;5108435;27;20237;-63
2022/05/14 02:07:44;;;;;;;8.43;4.50;;;12.40;99.90;;;;;;5124760;27;20232;-63
2022/05/14 02:10:12;;;;;;;9.87;4.87;;;12.40;99.90;;;;;;5123717;27;20231;-63
2022/05/14 02:12:41;;;;;;;11.43;4.87;;;12.40;99.90;;;;;;5106719;27;20232;-63
2022/05/14 02:15:10;;;;;;;10.60;4.50;;;12.40;99.90;;;;;;5123204;27;20326;-63
2022/05/14 02:17:39;;;;;;;10.03;4.40;;;12.40;99.90;;;;;;5101794;27;20224;-63
2022/05/14 02:20:10;;;;;;;7.90;4.50;;;12.40;99.90;;;;;;5103392;27;20298;-63
2022/05/14 02:22:39;;;;;;;11.43;5.30;;;12.40;99.90;;;;;;5099704;27;20267;-63
2022/05/14 02:25:10;;;;;;;12.47;5.07;;;12.40;99.90;;;;;;5103578;27;20327;-63
2022/05/14 02:27:38;;;;;;;7.93;4.77;;;12.30;99.90;;;;;;5099950;27;20237;-63
2022/05/14 02:30:08;;;;;;;11.27;5.13;;;12.40;99.90;;;;;;5102732;27;20241;-63
2022/05/14 02:32:38;;;;;;;11.10;4.53;;;12.40;99.90;;;;;;5101211;27;20237;-63
2022/05/14 02:35:09;;;;;;;14.33;5.60;;;12.30;99.90;;;;;;5103544;27;20793;-63
2022/05/14 02:37:37;;;;;;;10.10;4.97;;;12.30;99.90;;;;;;5103303;27;20248;-63
2022/05/14 02:40:06;;;;;;;10.77;4.73;;;12.30;99.90;;;;;;5103696;27;20241;-63
2022/05/14 02:42:35;;;;;;;9.77;4.50;;;12.30;99.90;;;;;;5101011;27;20241;-63
2022/05/14 02:45:04;;;;;;;12.27;5.23;;;12.20;99.90;;;;;;5103007;27;20250;-63
2022/05/14 02:47:32;;;;;;;11.83;5.20;;;12.20;99.90;;;;;;5103567;27;20240;-64
2022/05/14 02:50:01;;;;;;;10.77;4.77;;;12.20;99.90;;;;;;5103556;27;20245;-63
2022/05/14 02:52:31;;;;;;;10.37;5.00;;;12.10;99.90;;;;;;5100644;28;20369;-63
2022/05/14 02:55:00;;;;;;;9.70;4.50;;;12.10;99.90;;;;;;5102591;27;20271;-63
2022/05/14 02:57:28;;;;;;;8.63;4.90;;;12.10;99.90;;;;;;5102711;27;20728;-63
2022/05/14 02:59:56;;;;;;;10.57;5.20;;;12.10;99.90;;;;;;5101266;28;20249;-63
2022/05/14 03:02:25;;;;;;;11.53;4.50;;;12.10;99.90;;;;;;5100078;27;20267;-63
2022/05/14 03:04:53;;;;;;;9.80;4.50;;;12.10;99.90;;;;;;5102172;27;20237;-64
2022/05/14 03:07:22;;;;;;;13.07;4.70;;;12.00;99.90;;;;;;5102839;27;20260;-64
2022/05/14 03:09:51;;;;;;;13.27;5.07;;;12.00;99.90;;;;;;5101519;28;20600;-63
2022/05/14 03:12:21;;;;;;;12.30;5.13;;;12.10;99.90;;;;;;5101626;27;21032;-63
2022/05/14 03:14:50;;;;;;;11.90;4.57;;;12.00;99.90;;;;;;5099473;28;20237;-63
2022/05/14 03:17:21;;;;;;;12.47;5.00;;;12.10;99.90;;;;;;5088451;28;20717;-63
2022/05/14 03:19:51;;;;;;;11.17;5.43;;;12.00;99.90;;;;;;5085780;28;20631;-63
2022/05/14 03:22:19;;;;;;;11.40;5.07;;;12.00;99.90;;;;;;5085693;28;20249;-63
2022/05/14 03:24:48;;;;;;;12.27;5.27;;;11.90;99.90;;;;;;5081893;28;20240;-63
2022/05/14 03:27:18;;;;;;;11.07;5.30;;;11.90;99.90;;;;;;5080869;28;20324;-63
2022/05/14 03:29:46;;;;;;;12.10;5.57;;;12.00;99.90;;;;;;5082969;28;20315;-63
2022/05/14 03:32:15;;;;;;;14.60;5.73;;;11.90;99.90;;;;;;5083091;28;20230;-63
2022/05/14 03:34:45;;;;;;;9.93;4.97;;;11.90;99.90;;;;;;5081732;28;20330;-64
2022/05/14 03:37:14;;;;;;;10.53;4.93;;;11.90;99.90;;;;;;5085340;28;20242;-64
2022/05/14 03:39:42;;;;;;;8.93;4.70;;;11.90;99.90;;;;;;5082830;28;20692;-63
2022/05/14 03:42:10;;;;;;;12.23;5.40;;;11.90;99.90;;;;;;5081497;28;20245;-63
2022/05/14 03:44:40;;;;;;;12.10;5.67;;;11.90;99.90;;;;;;5081616;28;20666;-63
2022/05/14 03:47:08;;;;;;;11.63;5.33;;;11.90;99.90;;;;;;5078398;28;20245;-63
2022/05/14 03:49:36;;;;;;;11.93;5.13;;;11.90;99.90;;;;;;5082415;28;20244;-63
2022/05/14 03:52:05;;;;;;;12.30;5.33;;;11.80;99.90;;;;;;5083501;28;20692;-63
2022/05/14 03:54:33;;;;;;;14.63;5.83;;;11.80;99.90;;;;;;5079831;28;20241;-63
2022/05/14 03:57:01;;;;;;;13.93;5.93;;;11.80;99.90;;;;;;5084534;28;20816;-63
2022/05/14 03:59:30;;;;;;;9.57;5.80;;;11.90;99.90;;;;;;5082541;28;20243;-63
2022/05/14 04:01:59;;;;;;;9.40;5.60;;;11.90;99.90;;;;;;5085458;28;20764;-63
2022/05/14 04:04:28;;;;;;;12.77;5.27;;;11.90;99.90;;;;;;5079402;28;20621;-63
2022/05/14 04:06:56;;;;;;;13.17;6.00;;;11.90;99.90;;;;;;5081459;28;20249;-63
2022/05/14 04:09:25;;;;;;;14.20;6.03;;;12.00;99.90;;;;;;5079075;28;20295;-63
2022/05/14 04:11:55;;;;;;;13.13;5.23;;;12.00;99.90;;;;;;5082254;28;20245;-63
2022/05/14 04:14:24;;;;;;;12.50;5.70;;;12.00;99.90;;;;;;5077230;28;20272;-63
2022/05/14 04:16:55;;;;;;;14.77;5.30;;;12.00;99.90;;;;;;5091057;27;20717;-63
2022/05/14 04:19:25;;;;;;;10.83;5.73;;;12.00;99.90;;;;;;5101060;27;20319;-63
2022/05/14 04:21:53;;;;;;;11.97;6.23;;;12.00;99.90;;;;;;5100474;27;20828;-63
2022/05/14 04:24:22;;;;;;;13.20;5.70;;;12.00;99.90;;;;;;5097896;28;20279;-63
2022/05/14 04:26:50;;;;;;;15.50;5.90;;;12.00;99.90;;;;;;5102957;27;20240;-63
2022/05/14 04:29:19;;;;;;;15.07;5.43;;;12.10;99.90;;;;;;5099980;28;20681;-63
2022/05/14 04:31:47;;;;;;;12.20;5.50;;;12.10;99.90;;;;;;5107119;27;20908;-63
2022/05/14 04:34:17;;;;;;;12.33;5.83;;;12.10;99.90;;;;;;5105658;27;20225;-63
2022/05/14 04:36:47;;;;;;;13.27;6.50;;;12.10;99.90;;;;;;5109377;27;20236;-63
2022/05/14 04:39:15;;;;;;;14.10;6.27;;;12.20;99.90;;;;;;5107727;27;20233;-63
2022/05/14 04:41:44;;;;;;;13.60;5.03;;;12.20;99.90;;;;;;5109424;27;20245;-63
2022/05/14 04:44:13;;;;;;;15.50;6.37;;;12.30;99.90;;;;;;5105527;27;20324;-63
2022/05/14 04:46:41;;;;;;;11.80;5.20;;;12.30;99.90;;;;;;5107839;27;20319;-63
2022/05/14 04:49:10;;;;;;;13.47;6.00;;;12.30;99.90;;;;;;5108686;27;20623;-63
2022/05/14 04:51:38;;;;;;;15.63;5.83;;;12.30;99.90;;;;;;5106319;27;20247;-63
2022/05/14 04:54:07;;;;;;;17.93;6.43;;;12.30;99.90;;;;;;5104997;27;20716;-63
2022/05/14 04:56:35;;;;;;;13.53;5.87;;;12.30;99.90;;;;;;5106455;27;21317;-63
2022/05/14 04:59:04;;;;;;;11.07;5.33;;;12.40;99.90;;;;;;5105741;27;20244;-63
2022/05/14 05:01:32;;;;;;;12.73;5.60;;;12.40;99.90;;;;;;5106171;27;20236;-63
2022/05/14 05:04:00;;;;;;;14.00;5.67;;;12.40;99.90;;;;;;5105935;27;20236;-63
2022/05/14 05:06:29;;;;;;;13.03;6.03;;;12.50;99.90;;;;;;5124684;27;20237;-63
2022/05/14 05:08:58;;;;;;;14.07;5.83;;;12.50;99.90;;;;;;5107691;27;20232;-63
2022/05/14 05:11:28;;;;;;;15.73;6.60;;;12.50;99.90;;;;;;5107556;27;20712;-63
2022/05/14 05:13:56;;;;;;;15.20;5.97;;;12.50;99.90;;;;;;5105432;27;20251;-63
2022/05/14 05:16:24;;;;;;;16.77;6.13;;;12.50;99.90;;;;;;5109853;27;20252;-63
2022/05/14 05:18:53;;;;;;;13.43;5.90;;;12.50;99.90;;;;;;5116153;27;20626;-63
2022/05/14 05:21:21;;;;;;;16.50;5.60;;;12.60;99.90;;;;;;5109933;27;20711;-63
2022/05/14 05:23:49;;;;;;;15.83;6.73;;;12.60;99.90;;;;;;5111047;27;20232;-63
2022/05/14 05:26:17;;;;;;;17.53;6.73;;;12.70;99.90;;;;;;5113684;27;20236;-63
2022/05/14 05:28:47;;;;;;;13.47;5.73;;;12.70;99.90;;;;;;5113504;27;20232;-63
2022/05/14 05:31:15;;;;;;;16.60;5.90;;;12.70;99.90;;;;;;5115509;27;20304;-63
2022/05/14 05:33:43;;;;;;;14.43;6.33;;;12.70;99.90;;;;;;5107982;27;20256;-63
2022/05/14 05:36:11;;;;;;;16.33;6.20;;;12.80;99.90;;;;;;5112857;27;20245;-63
2022/05/14 05:38:39;;;;;;;19.13;5.93;;;12.80;99.90;;;;;;5114434;27;20241;-63
2022/05/14 05:41:07;;;;;;;14.63;5.80;;;12.80;99.90;;;;;;5114025;27;20289;-63
2022/05/14 05:43:35;;;;;;;15.63;6.20;;;12.90;99.90;;;;;;5105560;27;21681;-63
2022/05/14 05:46:05;;;;;;;13.50;5.90;;;12.90;99.90;;;;;;5110607;27;20251;-63
2022/05/14 05:48:33;;;;;;;16.20;6.33;;;12.90;99.90;;;;;;5106565;27;20241;-63
2022/05/14 05:51:01;;;;;;;13.90;5.63;;;13.00;99.90;;;;;;5109695;27;20251;-63
2022/05/14 05:58:57;;;;;;;15.93;5.60;;;13.20;99.90;;;;;;5111519;27;20811;-63
2022/05/14 06:01:26;;;;;;;18.23;6.30;;;13.30;99.90;;;;;;5107179;27;20247;-63
2022/05/14 06:03:55;;;;;;;15.63;5.97;;;13.40;99.90;;;;;;5108901;27;20249;-63
2022/05/14 06:06:23;;;;;;;13.67;6.00;;;13.50;99.90;;;;;;5110714;27;20232;-63
2022/05/14 06:08:53;;;;;;;15.80;6.50;;;13.70;99.90;;;;;;5111864;27;20340;-63
2022/05/14 06:11:21;;;;;;;16.67;6.93;;;13.80;99.90;;;;;;5101458;27;20663;-63
2022/05/14 06:13:50;;;;;;;16.57;6.13;;;13.90;99.90;;;;;;5106389;27;20240;-63
2022/05/14 06:16:19;;;;;;;14.43;6.37;;;14.00;99.90;;;;;;5112870;27;20734;-63
2022/05/14 06:18:48;;;;;;;16.70;6.10;;;14.00;99.90;;;;;;5124635;27;20292;-63
2022/05/14 06:21:16;;;;;;;18.00;6.67;;;14.00;99.90;;;;;;5123441;27;20236;-63
2022/05/14 06:23:45;;;;;;;22.30;7.17;;;14.10;99.90;;;;;;5120488;27;20269;-63
2022/05/14 06:26:13;;;;;;;18.10;6.47;;;14.20;99.90;;;;;;5123836;27;20319;-64
2022/05/14 06:28:42;;;;;;;14.07;6.33;;;14.50;99.90;;;;;;5122763;27;20316;-63
2022/05/14 06:31:10;;;;;;;12.17;5.50;;;15.10;99.90;;;;;;5123551;27;20674;-63
2022/05/14 06:33:38;;;;;;;13.23;5.27;;;15.30;99.90;;;;;;5120330;27;20293;-63
2022/05/14 06:36:08;;;;;;;17.07;5.43;;;15.40;99.90;;;;;;5121846;27;20780;-64
2022/05/14 06:38:36;;;;;;;15.93;5.50;;;15.70;99.90;;;;;;5123466;27;20305;-64
2022/05/14 06:41:06;;;;;;;18.47;6.27;;;16.00;99.90;;;;;;5123439;27;20240;-64
2022/05/14 06:43:34;;;;;;;16.53;5.60;;;16.10;99.90;;;;;;5120936;27;20780;-65
2022/05/14 06:46:02;;;;;;;15.73;6.03;;;16.10;99.90;;;;;;5121765;27;20240;-64
2022/05/14 06:48:31;;;;;;;15.03;5.83;;;16.40;99.90;;;;;;5122704;27;20248;-66
2022/05/14 06:51:02;;;;;;;14.07;5.77;;;16.60;99.90;;;;;;5121665;27;20324;-65
2022/05/14 06:53:33;;;;;;;19.33;5.60;;;16.80;99.90;;;;;;5118973;27;20916;-64
2022/05/14 06:56:02;;;;;;;65.30;10.27;;;17.10;99.90;;;;;;5123022;27;20241;-64
2022/05/14 06:58:36;;;;;;;22.77;6.00;;;17.30;99.90;;;;;;5123526;27;20805;-64
2022/05/14 07:01:04;;;;;;;20.80;5.67;;;17.30;99.90;;;;;;5121172;27;20750;-65
2022/05/14 07:06:40;;;;;;;16.83;5.47;;;17.60;99.90;;;;;;5122303;27;20244;-66
2022/05/14 07:09:14;;;;;;;14.90;5.07;;;17.70;99.90;;;;;;5123046;27;20255;-66
2022/05/14 07:11:44;;;;;;;15.17;5.37;;;17.70;99.90;;;;;;5122663;27;20241;-65
2022/05/14 07:14:16;;;;;;;15.03;4.73;;;18.00;99.90;;;;;;5119516;27;20244;-65
2022/05/14 07:16:45;;;;;;;16.30;4.87;;;18.50;99.90;;;;;;5121764;27;20233;-65
2022/05/14 07:19:14;;;;;;;17.90;5.00;;;18.90;99.90;;;;;;5122659;27;20355;-70
2022/05/14 07:21:44;;;;;;;15.13;5.03;;;19.00;99.90;;;;;;5121880;27;20644;-68
2022/05/14 07:24:17;;;;;;;18.57;5.13;;;19.20;99.90;;;;;;5119145;27;20234;-67
2022/05/14 07:26:46;;;;;;;15.23;5.57;;;19.30;99.90;;;;;;5121790;27;20254;-67
2022/05/14 07:29:17;;;;;;;17.03;4.77;;;19.20;99.90;;;;;;5104709;27;20335;-68
2022/05/14 07:31:46;;;;;;;13.73;4.27;;;19.20;99.90;;;;;;5122089;27;20305;-67
2022/05/14 07:34:14;;;;;;;10.60;4.10;;;19.40;99.90;;;;;;5120536;27;20246;-68
2022/05/14 07:36:48;;;;;;;18.20;4.80;;;19.50;99.90;;;;;;5123166;27;20242;-67
2022/05/14 07:39:19;;;;;;;12.27;4.10;;;20.00;99.90;;;;;;5121578;27;20263;-68
2022/05/14 07:41:53;;;;;;;13.50;3.87;;;20.20;99.90;;;;;;5120762;27;20234;-67
2022/05/14 07:44:26;;;;;;;14.60;4.82;;;20.40;99.90;;;;;;5118348;27;20430;-65
2022/05/14 07:46:55;;;;;;;14.33;3.93;;;20.50;99.90;;;;;;5120480;27;20241;-64
2022/05/14 07:49:25;;;;;;;11.07;3.67;;;20.30;99.90;;;;;;5120497;27;20239;-65
2022/05/14 07:51:55;;;;;;;12.97;4.33;;;20.40;99.90;;;;;;5119108;27;20289;-65
2022/05/14 07:54:25;;;;;;;17.57;5.07;;;20.50;99.90;;;;;;5119103;27;20687;-67
2022/05/14 07:56:55;;;;;;;17.80;5.70;;;19.90;99.90;;;;;;5121330;27;20255;-71
2022/05/14 07:59:23;;;;;;;15.07;5.07;;;20.00;99.90;;;;;;5120281;27;20483;-71
2022/05/14 08:01:51;;;;;;;13.77;4.00;;;20.30;99.90;;;;;;5121144;27;20232;-69
2022/05/14 08:04:19;;;;;;;15.70;4.13;;;20.50;99.90;;;;;;5119340;27;20599;-70
2022/05/14 08:06:47;;;;;;;13.20;3.90;;;20.60;99.90;;;;;;5121878;27;20297;-68
2022/05/14 08:09:15;;;;;;;14.70;4.10;;;20.30;99.90;;;;;;5122941;27;20235;-71
2022/05/14 08:11:45;;;;;;;11.77;3.47;;;19.90;99.90;;;;;;5123413;27;20240;-71
2022/05/14 08:14:14;;;;;;;13.07;3.90;;;20.00;99.90;;;;;;5120064;27;20240;-71
2022/05/14 08:16:42;;;;;;;13.27;3.40;;;20.00;99.90;;;;;;5122619;27;20798;-70
2022/05/14 08:19:10;;;;;;;14.13;4.23;;;20.30;99.90;;;;;;5122973;27;20239;-71
2022/05/14 08:24:34;;;;;;;12.60;3.63;;;20.20;99.90;;;;;;5120547;27;20236;-71
2022/05/14 08:27:08;;;;;;;14.10;3.97;;;20.20;99.90;;;;;;5102251;28;20240;-71
2022/05/14 08:29:45;;;;;;;11.50;3.50;;;19.80;99.90;;;;;;5101922;28;20266;-69
2022/05/14 08:32:14;;;;;;;10.50;3.70;;;19.30;99.90;;;;;;5101600;28;20777;-69
2022/05/14 08:34:42;;;;;;;8.87;3.10;;;19.00;99.90;;;;;;5100498;28;20747;-69
2022/05/14 08:37:11;;;;;;;9.33;3.00;;;18.80;99.90;;;;;;5101549;28;20248;-70
2022/05/14 08:39:39;;;;;;;12.17;3.57;;;19.40;99.90;;;;;;5102768;28;21005;-70
2022/05/14 08:42:12;;;;;;;9.50;3.30;;;19.20;99.90;;;;;;5101651;28;20236;-69
2022/05/14 08:44:44;;;;;;;10.70;3.37;;;19.00;99.90;;;;;;5101395;28;20320;-71
2022/05/14 08:47:26;;;;;;;11.07;3.43;;;18.70;99.90;;;;;;5102036;28;20240;-71
2022/05/14 08:49:57;;;;;;;14.33;3.83;;;19.30;99.90;;;;;;5122560;27;20240;-69
2022/05/14 08:52:34;;;;;;;10.47;3.20;;;20.10;99.90;;;;;;5118900;27;20332;-71
2022/05/14 08:55:07;;;;;;;12.77;3.10;;;20.10;99.90;;;;;;5121141;28;20754;-70
2022/05/14 08:57:45;;;;;;;10.73;3.20;;;20.50;99.90;;;;;;5121729;27;20229;-70
2022/05/14 09:00:14;;;;;;;10.23;3.17;;;21.50;99.90;;;;;;5121360;27;20252;-71
2022/05/14 09:02:47;;;;;;;7.93;2.93;;;21.40;99.90;;;;;;5120395;27;20708;-71
2022/05/14 09:05:19;;;;;;;7.37;2.97;;;21.30;99.90;;;;;;5122877;27;20367;-71
2022/05/14 09:07:50;;;;;;;11.07;3.23;;;21.80;99.90;;;;;;5122669;28;20249;-71
2022/05/14 09:10:24;;;;;;;9.80;2.93;;;21.90;99.90;;;;;;5118287;28;20324;-70
2022/05/14 09:12:57;;;;;;;10.37;3.40;;;22.00;99.90;;;;;;5117081;27;20324;-70
2022/05/14 09:15:28;;;;;;;10.80;3.13;;;21.60;99.90;;;;;;5118930;28;20312;-70
2022/05/14 09:18:05;;;;;;;11.07;3.47;;;21.20;99.90;;;;;;5122442;27;20596;-71
2022/05/14 09:20:44;;;;;;;9.37;2.90;;;20.50;99.90;;;;;;5124643;27;20231;-69
2022/05/14 09:23:13;;;;;;;6.67;2.60;;;20.40;99.90;;;;;;5122131;27;20268;-70
2022/05/14 09:25:42;;;;;;;11.77;2.63;;;20.20;99.90;;;;;;5125670;27;20906;-68
2022/05/14 09:28:23;;;;;;;9.13;3.07;;;20.20;99.90;;;;;;5125004;27;20278;-70
2022/05/14 09:30:55;;;;;;;12.73;3.50;;;19.90;99.90;;;;;;5124807;27;20244;-70
2022/05/14 09:33:27;;;;;;;13.68;3.90;;;20.60;99.90;;;;;;5120230;27;20437;-71
2022/05/14 09:35:57;;;;;;;15.63;3.07;;;20.90;99.90;;;;;;5124106;27;20240;-71
2022/05/14 09:38:26;;;;;;;10.33;2.97;;;20.70;99.90;;;;;;5115403;27;20244;-71
2022/05/14 09:40:56;;;;;;;12.37;3.07;;;20.30;99.90;;;;;;5124193;27;20291;-71
2022/05/14 09:43:35;;;;;;;9.23;3.00;;;20.00;99.90;;;;;;5122551;27;20708;-71
2022/05/14 09:46:06;;;;;;;5.97;3.07;;;20.20;99.90;;;;;;5091302;27;20293;-68
2022/05/14 09:48:37;;;;;;;5.87;2.60;;;20.30;99.90;;;;;;5125723;27;20312;-71
2022/05/14 09:51:09;;;;;;;7.93;2.73;;;20.40;99.90;;;;;;5125890;27;20786;-69
2022/05/14 09:53:41;;;;;;;10.40;3.13;;;20.50;99.90;;;;;;5122969;27;20320;-71
2022/05/14 09:56:34;;;;;;;9.17;2.97;;;20.30;99.90;;;;;;5125128;27;20232;-71
2022/05/14 09:59:20;;;;;;;10.73;2.67;;;20.20;99.90;;;;;;5120974;27;20272;-71
2022/05/14 10:01:54;;;;;;;7.80;2.37;;;20.50;99.90;;;;;;5124017;27;20634;-72
2022/05/14 10:04:44;;;;;;;6.60;2.57;;;21.10;99.90;;;;;;5120534;27;20268;-71
2022/05/14 10:07:16;;;;;;;8.57;2.70;;;21.00;99.90;;;;;;5121237;27;20240;-68
2022/05/14 10:09:53;;;;;;;7.67;3.03;;;20.80;99.90;;;;;;5123312;27;20236;-69
2022/05/14 10:12:29;;;;;;;11.20;2.80;;;20.20;99.90;;;;;;5124738;27;20728;-69
2022/05/14 10:15:12;;;;;;;8.47;2.40;;;20.30;99.90;;;;;;5123187;27;20256;-69
2022/05/14 10:17:47;;;;;;;10.67;2.97;;;20.40;99.90;;;;;;5125282;27;20629;-69
2022/05/14 10:20:27;;;;;;;8.67;3.13;;;20.20;99.90;;;;;;5122721;27;20305;-71
2022/05/14 10:29:11;;;;;;;9.43;2.63;;;19.10;99.90;;;;;;5122586;27;20712;-62
2022/05/14 10:31:48;;;;;;;6.00;2.50;;;18.50;99.90;;;;;;5123142;27;20805;-62
2022/05/14 10:34:21;;;;;;;8.60;2.50;;;18.50;99.90;;;;;;5121376;27;20234;-61
2022/05/14 10:36:55;;;;;;;5.27;2.13;;;19.00;99.90;;;;;;5124020;27;20253;-62
2022/05/14 10:39:32;;;;;;;14.77;2.60;;;20.10;99.90;;;;;;5123507;27;20247;-62
2022/05/14 10:42:09;;;;;;;7.33;2.50;;;20.80;99.90;;;;;;5123737;27;20248;-61
2022/05/14 10:44:46;;;;;;;9.03;2.80;;;20.30;99.90;;;;;;5121828;27;20242;-62
2022/05/14 10:47:17;;;;;;;7.83;2.40;;;20.50;99.90;;;;;;5123669;27;20695;-62
2022/05/14 10:49:54;;;;;;;7.03;2.70;;;21.50;99.90;;;;;;5123877;27;20239;-62
2022/05/14 10:52:22;;;;;;;7.33;2.57;;;22.40;99.90;;;;;;5121893;27;20271;-62
2022/05/14 10:54:51;;;;;;;6.60;2.63;;;23.30;99.90;;;;;;5121692;27;20720;-62
2022/05/14 10:57:43;;;;;;;6.93;2.57;;;22.30;99.90;;;;;;5123098;27;20237;-63
2022/05/14 11:00:24;;;;;;;6.17;2.50;;;21.00;99.90;;;;;;5107564;27;20232;-62
2022/05/14 11:02:57;;;;;;;7.10;2.30;;;21.30;99.90;;;;;;5119806;27;20251;-62
2022/05/14 11:05:34;;;;;;;7.33;2.57;;;22.00;99.90;;;;;;5122708;27;21076;-62
2022/05/14 11:08:14;;;;;;;6.73;2.33;;;21.30;99.90;;;;;;5121962;27;20244;-63
2022/05/14 11:10:42;;;;;;;7.77;2.80;;;21.30;99.90;;;;;;5123278;27;20248;-63
2022/05/14 11:13:17;;;;;;;13.03;3.03;;;21.00;99.90;;;;;;5120312;27;20246;-63
2022/05/14 11:15:59;;;;;;;8.80;2.60;;;20.80;99.90;;;;;;5121663;27;20232;-62
2022/05/14 11:18:29;;;;;;;6.97;2.40;;;20.30;99.90;;;;;;5117832;27;20791;-62
2022/05/14 11:21:03;;;;;;;9.67;2.90;;;19.60;99.90;;;;;;5123282;27;21375;-62
2022/05/14 11:23:33;;;;;;;21.53;3.27;;;19.60;99.90;;;;;;5092596;27;20244;-61
2022/05/14 11:26:11;;;;;;;11.30;2.23;;;19.50;99.90;;;;;;5094810;28;20597;-61
2022/05/14 11:28:39;;;;;;;7.73;2.20;;;19.50;99.90;;;;;;5123701;27;20321;-62
2022/05/14 11:31:16;;;;;;;6.57;2.20;;;19.80;99.90;;;;;;5116768;27;20242;-61
2022/05/14 11:33:47;;;;;;;8.00;2.40;;;20.10;99.90;;;;;;5118932;27;20737;-62
2022/05/14 11:36:23;;;;;;;8.40;2.73;;;19.70;99.90;;;;;;5119527;27;20322;-61
2022/05/14 11:39:30;;;;;;;8.13;2.30;;;20.20;99.90;;;;;;5121032;27;20248;-63
2022/05/14 11:42:29;;;;;;;6.20;2.00;;;20.30;99.90;;;;;;5100876;27;20259;-61
2022/05/14 11:45:05;;;;;;;8.23;2.57;;;20.50;99.90;;;;;;5100560;27;20238;-61
2022/05/14 11:47:58;;;;;;;6.30;2.23;;;21.10;99.90;;;;;;5113838;27;20302;-63
2022/05/14 11:50:33;;;;;;;10.37;2.57;;;21.70;99.90;;;;;;5121198;27;20806;-65
2022/05/14 11:53:18;;;;;;;7.13;2.40;;;21.40;99.90;;;;;;5118890;27;20285;-62
2022/05/14 11:55:49;;;;;;;14.77;2.93;;;20.50;99.90;;;;;;5122993;27;20257;-62
2022/05/14 11:58:23;;;;;;;7.10;2.30;;;20.60;99.90;;;;;;5123073;27;20237;-62
2022/05/14 12:00:53;;;;;;;6.07;2.43;;;20.90;99.90;;;;;;5121173;27;20250;-62
2022/05/14 12:03:26;;;;;;;12.77;2.70;;;20.70;99.90;;;;;;5119225;27;20705;-62
2022/05/14 12:05:58;;;;;;;10.17;2.70;;;20.80;99.90;;;;;;5122204;27;20240;-62
2022/05/14 12:08:49;;;;;;;7.77;2.17;;;20.60;99.90;;;;;;5121805;27;20244;-62
2022/05/14 12:11:29;;;;;;;6.63;1.93;;;20.20;99.90;;;;;;5121628;27;20237;-61
2022/05/14 12:14:05;;;;;;;8.27;2.30;;;20.00;99.90;;;;;;5119431;27;20326;-62
2022/05/14 12:16:36;;;;;;;7.77;2.40;;;19.70;99.90;;;;;;5121321;27;20240;-62
2022/05/14 12:19:07;;;;;;;6.90;2.10;;;19.40;99.90;;;;;;5121766;27;20244;-62
2022/05/14 12:21:37;;;;;;;9.23;2.67;;;19.30;99.90;;;;;;5121597;27;20584;-61
2022/05/14 12:24:05;;;;;;;5.17;2.10;;;19.60;99.90;;;;;;5119265;27;20697;-62
2022/05/14 12:26:37;;;;;;;6.73;1.87;;;19.60;99.90;;;;;;5106123;27;20284;-61
2022/05/14 12:29:15;;;;;;;6.73;2.03;;;19.50;99.90;;;;;;5121035;27;20729;-62
2022/05/14 12:34:37;;;;;;;6.30;2.07;;;19.70;99.90;;;;;;5118781;27;20723;-62
2022/05/14 12:37:26;;;;;;;7.47;1.93;;;19.90;99.90;;;;;;5121535;28;20247;-62
2022/05/14 12:39:57;;;;;;;9.27;2.27;;;19.90;99.90;;;;;;5122164;27;20243;-62
2022/05/14 12:42:34;;;;;;;7.67;2.13;;;19.50;99.90;;;;;;5120584;27;21286;-62
2022/05/14 12:45:05;;;;;;;6.80;2.33;;;19.20;99.90;;;;;;5120633;27;20252;-61
2022/05/14 12:47:37;;;;;;;8.20;2.33;;;19.30;99.90;;;;;;5121513;27;20313;-62
2022/05/14 12:50:16;;;;;;;8.40;2.23;;;19.20;99.90;;;;;;5121667;27;20247;-62
2022/05/14 12:52:56;;;;;;;6.90;2.40;;;19.30;99.90;;;;;;5122014;27;20762;-62
2022/05/14 12:55:25;;;;;;;6.90;2.37;;;19.20;99.90;;;;;;5125744;27;20300;-61
2022/05/14 12:57:55;;;;;;;7.13;2.00;;;19.20;99.90;;;;;;5125142;27;20712;-63
2022/05/14 13:00:24;;;;;;;8.37;3.03;;;19.40;99.90;;;;;;5123126;27;20247;-62
2022/05/14 13:02:57;;;;;;;6.43;2.07;;;19.20;99.90;;;;;;5119054;27;20325;-62
2022/05/14 13:05:31;;;;;;;5.90;1.80;;;18.90;99.90;;;;;;5119514;27;20244;-63
2022/05/14 13:08:07;;;;;;;8.30;2.27;;;18.90;99.90;;;;;;5120895;27;20263;-63
2022/05/14 13:10:37;;;;;;;7.37;2.30;;;18.90;99.90;;;;;;5119593;27;20238;-61
2022/05/14 13:13:07;;;;;;;15.30;3.17;;;18.90;99.90;;;;;;5118413;27;20243;-62
2022/05/14 13:15:37;;;;;;;10.50;2.60;;;19.20;99.90;;;;;;5121256;27;20243;-63
2022/05/14 13:18:20;;;;;;;7.90;2.60;;;19.00;99.90;;;;;;5120632;27;20248;-63
2022/05/14 13:20:56;;;;;;;9.53;2.50;;;19.00;99.90;;;;;;5121793;27;20270;-63
2022/05/14 13:23:25;;;;;;;8.10;2.53;;;19.00;99.90;;;;;;5117788;27;20235;-63
2022/05/14 13:26:00;;;;;;;13.43;3.63;;;18.90;99.90;;;;;;5119305;27;20288;-62
2022/05/14 13:28:31;;;;;;;8.07;2.60;;;18.90;99.90;;;;;;5118581;27;20705;-62